Map

Track Data

SID SEASON NUMBER BASIN SUBBASIN NAME ISO_TIME NATURE LAT LON WMO_WIND WMO_PRES WMO_AGENCY TRACK_TYPE DIST2LAND LANDFALL IFLAG USA_AGENCY USA_ATCF_ID USA_LAT USA_LON USA_RECORD USA_STATUS USA_WIND USA_PRES USA_SSHS USA_R34_NE USA_R34_SE USA_R34_SW USA_R34_NW USA_R50_NE USA_R50_SE USA_R50_SW USA_R50_NW USA_R64_NE USA_R64_SE USA_R64_SW USA_R64_NW USA_POCI USA_ROCI USA_RMW USA_EYE TOKYO_LAT TOKYO_LON TOKYO_GRADE TOKYO_WIND TOKYO_PRES TOKYO_R50_DIR TOKYO_R50_LONG TOKYO_R50_SHORT TOKYO_R30_DIR TOKYO_R30_LONG TOKYO_R30_SHORT TOKYO_LAND CMA_LAT CMA_LON CMA_CAT CMA_WIND CMA_PRES HKO_LAT HKO_LON HKO_CAT HKO_WIND HKO_PRES NEWDELHI_LAT NEWDELHI_LON NEWDELHI_GRADE NEWDELHI_WIND NEWDELHI_PRES NEWDELHI_CI NEWDELHI_DP NEWDELHI_POCI REUNION_LAT REUNION_LON REUNION_TYPE REUNION_WIND REUNION_PRES REUNION_TNUM REUNION_CI REUNION_RMW REUNION_R34_NE REUNION_R34_SE REUNION_R34_SW REUNION_R34_NW REUNION_R50_NE REUNION_R50_SE REUNION_R50_SW REUNION_R50_NW REUNION_R64_NE REUNION_R64_SE REUNION_R64_SW REUNION_R64_NW BOM_LAT BOM_LON BOM_TYPE BOM_WIND BOM_PRES BOM_TNUM BOM_CI BOM_RMW BOM_R34_NE BOM_R34_SE BOM_R34_SW BOM_R34_NW BOM_R50_NE BOM_R50_SE BOM_R50_SW BOM_R50_NW BOM_R64_NE BOM_R64_SE BOM_R64_SW BOM_R64_NW BOM_ROCI BOM_POCI BOM_EYE BOM_POS_METHOD BOM_PRES_METHOD NADI_LAT NADI_LON NADI_CAT NADI_WIND NADI_PRES WELLINGTON_LAT WELLINGTON_LON WELLINGTON_WIND WELLINGTON_PRES DS824_LAT DS824_LON DS824_STAGE DS824_WIND DS824_PRES TD9636_LAT TD9636_LON TD9636_STAGE TD9636_WIND TD9636_PRES TD9635_LAT TD9635_LON TD9635_WIND TD9635_PRES TD9635_ROCI NEUMANN_LAT NEUMANN_LON NEUMANN_CLASS NEUMANN_WIND NEUMANN_PRES MLC_LAT MLC_LON MLC_CLASS MLC_WIND MLC_PRES USA_GUST BOM_GUST BOM_GUST_PER REUNION_GUST REUNION_GUST_PER USA_SEAHGT USA_SEARAD_NE USA_SEARAD_SE USA_SEARAD_SW USA_SEARAD_NW STORM_SPEED STORM_DIR
1865080S11085 1865 8 SI MM NOT_NAMED 1865-03-20 18:00:00 NR -11.2000 85.2000 main 1850 1850 __________O___ -1 -11.2000 85.2000 7 0 0
1865080S11085 1865 8 SI MM NOT_NAMED 1865-03-20 21:00:00 NR -11.2027 85.1841 main 1850 1850 __________P___ -1 -11.2027 85.1841 7 1 249
1865080S11085 1865 8 SI MM NOT_NAMED 1865-03-21 00:00:00 NR -11.2243 85.1246 main 1859 1859 __________P___ -1 -11.2243 85.1246 7 2 248
1865080S11085 1865 8 SI MM NOT_NAMED 1865-03-21 03:00:00 NR -11.2838 84.9778 main 1874 1874 __________P___ -1 -11.2838 84.9778 7 5 247
1865080S11085 1865 8 SI MM NOT_NAMED 1865-03-21 06:00:00 NR -11.4000 84.7000 main 1907 1907 __________O___ -1 -11.4000 84.7000 7 8 247
1865080S11085 1865 8 SI MM NOT_NAMED 1865-03-21 09:00:00 NR -11.5867 84.2659 main 1956 1956 __________P___ -1 -11.5867 84.2659 7 11 245
1865080S11085 1865 8 SI MM NOT_NAMED 1865-03-21 12:00:00 NR -11.8386 83.7253 main 2012 2012 __________P___ -1 -11.8386 83.7253 7 12 243
1865080S11085 1865 8 SI MM NOT_NAMED 1865-03-21 15:00:00 NR -12.1461 83.1470 main 2035 2035 __________P___ -1 -12.1461 83.1470 7 13 239
1865080S11085 1865 8 SI MM NOT_NAMED 1865-03-21 18:00:00 NR -12.5000 82.6000 main 2073 2072 __________O___ -1 -12.5000 82.6000 7 13 232
1865080S11085 1865 8 SI MM NOT_NAMED 1865-03-21 21:00:00 NR -12.9101 82.1377 main 2112 2112 __________P___ -1 -12.9101 82.1377 7 12 225
1865080S11085 1865 8 SI MM NOT_NAMED 1865-03-22 00:00:00 NR -13.3573 81.7233 main 2165 2165 __________P___ -1 -13.3573 81.7233 7 12 220
1865080S11085 1865 8 SI MM NOT_NAMED 1865-03-22 03:00:00 NR -13.8009 81.3721 main 2208 2208 __________P___ -1 -13.8009 81.3721 7 10 216
1865080S11085 1865 8 SI MM NOT_NAMED 1865-03-22 06:00:00 NR -14.2000 81.1000 main 2252 2252 __________O___ -1 -14.2000 81.1000 7 8 213
1865080S11085 1865 8 SI MM NOT_NAMED 1865-03-22 09:00:00 NR -14.4959 80.9080 main 2285 2285 __________P___ -1 -14.4959 80.9080 7 6 208
1865080S11085 1865 8 SI MM NOT_NAMED 1865-03-22 12:00:00 NR -14.7446 80.7942 main 2307 2307 __________P___ -1 -14.7446 80.7942 7 5 199
1865080S11085 1865 8 SI MM NOT_NAMED 1865-03-22 15:00:00 NR -14.9710 80.7333 main 2341 2341 __________P___ -1 -14.9710 80.7333 7 5 192
1865080S11085 1865 8 SI MM NOT_NAMED 1865-03-22 18:00:00 NR -15.2000 80.7000 main 2363 2363 __________O___ -1 -15.2000 80.7000 7 5 190
1865080S11085 1865 8 SI MM NOT_NAMED 1865-03-22 21:00:00 NR -15.4718 80.6412 main 2397 2397 __________P___ -1 -15.4718 80.6412 7 6 189
1865080S11085 1865 8 SI MM NOT_NAMED 1865-03-23 00:00:00 NR -15.7500 80.6050 main 2419 2419 __________P___ -1 -15.7500 80.6050 7 6 185
1865080S11085 1865 8 SI MM NOT_NAMED 1865-03-23 03:00:00 NR -16.0281 80.5913 main 2453 2446 __________P___ -1 -16.0281 80.5913 7 6 0
1865080S11085 1865 8 SI MM NOT_NAMED 1865-03-23 06:00:00 NR -16.3000 80.6000 main 2446 2440 __________O___ -1 -16.3000 80.6000 7 5 178
1865080S11085 1865 8 SI MM NOT_NAMED 1865-03-23 09:00:00 NR -16.5572 80.6203 main 2438 2435 __________P___ -1 -16.5572 80.6203 7 5 173
1865080S11085 1865 8 SI MM NOT_NAMED 1865-03-23 12:00:00 NR -16.8075 80.6625 main 2443 2438 __________P___ -1 -16.8075 80.6625 7 5 169
1865080S11085 1865 8 SI MM NOT_NAMED 1865-03-23 15:00:00 NR -17.0540 80.7235 main 2436 2436 __________P___ -1 -17.0540 80.7235 7 5 165
1865080S11085 1865 8 SI MM NOT_NAMED 1865-03-23 18:00:00 NR -17.3000 80.8000 main 2442 2440 __________O___ -1 -17.3000 80.8000 7 5 162
1865080S11085 1865 8 SI MM NOT_NAMED 1865-03-23 21:00:00 NR -17.5478 80.8889 main 2448 2444 __________P___ -1 -17.5478 80.8889 7 5 160
1865080S11085 1865 8 SI MM NOT_NAMED 1865-03-24 00:00:00 NR -17.7976 80.9873 main 2452 2450 __________P___ -1 -17.7976 80.9873 7 5 159
1865080S11085 1865 8 SI MM NOT_NAMED 1865-03-24 03:00:00 NR -18.0485 81.0919 main 2458 2455 __________P___ -1 -18.0485 81.0919 7 5 158
1865080S11085 1865 8 SI MM NOT_NAMED 1865-03-24 06:00:00 NR -18.3000 81.2000 main 2463 __________O___ -1 -18.3000 81.2000 7 5 158

About IBTrACS Database

This database is a web-friendly format of International Best Track Archive for Climate Stewardship (IBTrACS), a global best track data archive curated by NOAA dating back to 1842.

Updated: 2021-10-21